createdAt,value
2018-08-02T03:43:42.142Z,99.90
2018-08-02T03:45:46.329Z,99.90
2018-08-02T03:47:50.198Z,99.90
2018-08-02T03:49:53.962Z,99.90
2018-08-02T03:51:57.702Z,99.90
2018-08-02T03:54:01.563Z,99.90
2018-08-02T03:56:05.366Z,99.90
2018-08-02T03:58:09.141Z,99.90
2018-08-02T04:00:12.930Z,99.90
2018-08-02T04:02:16.856Z,99.90
2018-08-02T04:04:20.667Z,99.90
2018-08-02T04:06:24.478Z,99.90
2018-08-02T04:08:28.457Z,99.90
2018-08-02T04:10:32.240Z,99.90
2018-08-02T04:12:36.259Z,99.90
2018-08-02T04:14:40.428Z,99.90
2018-08-02T04:16:44.235Z,99.90
2018-08-02T04:18:53.117Z,99.90
2018-08-02T04:20:56.907Z,99.90
2018-08-02T04:23:01.050Z,99.90
2018-08-02T04:25:05.236Z,99.90
2018-08-02T04:27:09.007Z,99.90
2018-08-02T04:29:12.789Z,99.90
2018-08-02T04:31:16.578Z,99.90
2018-08-02T04:33:20.352Z,99.90
2018-08-02T04:35:24.181Z,99.90
2018-08-02T04:37:27.958Z,99.90
2018-08-02T04:39:31.764Z,99.90
2018-08-02T04:41:35.572Z,99.90
2018-08-02T04:43:39.413Z,99.90
2018-08-02T04:45:43.243Z,99.90
2018-08-02T04:47:47.054Z,99.90
2018-08-02T04:49:50.838Z,99.90
2018-08-02T04:51:54.737Z,99.90
2018-08-02T04:53:58.614Z,99.90
2018-08-02T04:56:02.548Z,99.90
2018-08-02T04:58:06.796Z,99.90
2018-08-02T05:00:10.803Z,99.90
2018-08-02T05:02:16.305Z,99.90
2018-08-02T05:04:20.173Z,99.90
2018-08-02T05:06:24.131Z,99.90
2018-08-02T05:08:30.666Z,99.90
2018-08-02T05:10:34.630Z,99.90
2018-08-02T05:12:38.417Z,99.90
2018-08-02T05:14:42.193Z,99.90
2018-08-02T05:16:46.057Z,99.90
2018-08-02T05:18:49.856Z,99.90
2018-08-02T05:20:53.919Z,99.90
2018-08-02T05:22:57.760Z,99.90
2018-08-02T05:25:01.619Z,99.90
2018-08-02T05:27:05.458Z,99.90
2018-08-02T05:29:09.766Z,99.90
2018-08-02T05:31:13.642Z,99.90
2018-08-02T05:33:17.435Z,99.90
2018-08-02T05:35:21.609Z,99.90
2018-08-02T05:37:25.254Z,99.90
2018-08-02T05:39:29.090Z,99.90
2018-08-02T05:41:32.887Z,99.90
2018-08-02T05:43:37.030Z,99.90
2018-08-02T05:45:40.790Z,99.90
2018-08-02T05:47:44.590Z,99.90
2018-08-02T05:49:48.436Z,99.90
2018-08-02T05:51:54.914Z,99.90
2018-08-02T05:53:58.847Z,99.90
2018-08-02T05:56:02.813Z,99.90
2018-08-02T05:58:06.700Z,99.90
2018-08-02T06:00:10.845Z,99.90
2018-08-02T06:02:14.843Z,99.90
2018-08-02T06:04:18.638Z,99.90
2018-08-02T06:06:22.509Z,99.90
2018-08-02T06:08:26.415Z,99.90
2018-08-02T06:10:32.916Z,99.90
2018-08-02T06:12:37.076Z,99.90
2018-08-02T06:14:40.869Z,99.90
2018-08-02T06:16:44.737Z,99.90
2018-08-02T06:18:48.501Z,99.90
2018-08-02T06:20:52.285Z,99.90
2018-08-02T06:22:56.266Z,99.60
2018-08-02T06:25:00.037Z,99.20
2018-08-02T06:27:03.988Z,97.80
2018-08-02T06:29:11.909Z,95.00
2018-08-02T06:31:15.693Z,92.30
2018-08-02T06:33:19.641Z,90.40
2018-08-02T06:35:23.460Z,85.60
2018-08-02T06:37:27.307Z,83.10
2018-08-02T06:39:31.293Z,79.80
2018-08-02T06:41:41.456Z,78.50
2018-08-02T06:43:44.046Z,76.60
2018-08-02T06:45:48.019Z,74.30
2018-08-02T06:47:50.562Z,74.20
2018-08-02T06:49:54.357Z,69.30
2018-08-02T06:51:58.241Z,66.10
2018-08-02T06:54:02.398Z,65.10
2018-08-02T06:56:07.576Z,64.30
2018-08-02T06:58:11.556Z,62.20
2018-08-02T07:00:15.955Z,59.00
2018-08-02T07:02:19.803Z,58.50
2018-08-02T07:04:23.717Z,57.30
2018-08-02T07:06:27.623Z,56.30
2018-08-02T07:08:31.552Z,56.80
2018-08-02T07:10:35.420Z,57.60
2018-08-02T07:12:39.588Z,58.20
2018-08-02T07:14:43.678Z,55.40
2018-08-02T07:16:47.505Z,54.80
2018-08-02T07:18:57.647Z,52.50
2018-08-02T07:21:01.558Z,51.10
2018-08-02T07:23:09.263Z,53.50
2018-08-02T07:25:13.223Z,53.70
2018-08-02T07:27:17.083Z,56.80
2018-08-02T07:29:21.044Z,58.30
2018-08-02T07:31:25.103Z,59.60
2018-08-02T07:33:29.184Z,61.50
2018-08-02T07:35:33.075Z,63.00
2018-08-02T07:37:36.987Z,65.50
2018-08-02T07:39:41.329Z,66.40
2018-08-02T07:41:45.462Z,67.10
2018-08-02T07:43:49.331Z,68.30
2018-08-02T07:45:53.365Z,68.40
2018-08-02T07:47:57.290Z,68.40
2018-08-02T07:50:01.303Z,71.10
2018-08-02T07:52:06.240Z,72.20
2018-08-02T07:54:10.397Z,72.90
2018-08-02T07:56:14.509Z,73.10
2018-08-02T07:58:18.520Z,72.80
2018-08-02T08:00:22.400Z,72.00
2018-08-02T08:02:26.559Z,71.20
2018-08-02T08:04:30.579Z,68.80
2018-08-02T08:06:34.554Z,68.70
2018-08-02T08:08:38.778Z,69.70
2018-08-02T08:10:42.635Z,72.10
2018-08-02T08:12:46.420Z,71.00
2018-08-02T08:14:52.651Z,71.90
2018-08-02T08:16:56.882Z,69.50
2018-08-02T08:19:00.806Z,70.10
2018-08-02T08:21:04.671Z,71.40
2018-08-02T08:23:08.655Z,67.90
2018-08-02T08:25:13.574Z,70.80
2018-08-02T08:27:17.582Z,71.80
2018-08-02T08:29:21.391Z,69.50
2018-08-02T08:31:25.413Z,70.00
2018-08-02T08:33:29.745Z,67.00
2018-08-02T08:35:33.522Z,64.30
2018-08-02T08:37:37.540Z,68.30
2018-08-02T08:39:41.504Z,68.30
2018-08-02T08:41:45.465Z,69.30
2018-08-02T08:43:49.258Z,64.20
2018-08-02T08:45:53.325Z,67.00
2018-08-02T08:47:57.581Z,66.10
2018-08-02T08:50:01.476Z,66.20
2018-08-02T08:52:05.814Z,65.50
2018-08-02T08:54:09.802Z,65.10
2018-08-02T08:56:13.713Z,65.00
2018-08-02T08:58:17.625Z,65.80
2018-08-02T09:00:21.603Z,64.20
2018-08-02T09:02:25.706Z,65.00
2018-08-02T09:04:29.938Z,66.60
2018-08-02T09:06:34.004Z,66.60
2018-08-02T09:08:39.240Z,69.20
2018-08-02T09:10:43.213Z,65.20
2018-08-02T09:12:47.223Z,64.90
2018-08-02T09:14:51.397Z,65.50
2018-08-02T09:16:55.415Z,66.70
2018-08-02T09:18:59.864Z,64.20
2018-08-02T09:21:03.767Z,65.30
2018-08-02T09:23:07.691Z,63.80
2018-08-02T09:25:11.812Z,62.40
2018-08-02T09:27:15.882Z,62.20
2018-08-02T09:29:19.870Z,64.50
2018-08-02T09:33:47.114Z,64.90
2018-08-02T09:35:51.056Z,65.00
2018-08-02T09:37:54.977Z,63.50
2018-08-02T09:39:58.831Z,62.40
2018-08-02T09:42:03.400Z,64.90
2018-08-02T09:44:08.118Z,66.20
2018-08-02T09:46:12.394Z,63.80
2018-08-02T09:48:16.311Z,64.00
2018-08-02T09:50:20.302Z,61.40
2018-08-02T09:52:24.296Z,64.10
2018-08-02T09:54:28.443Z,67.10
2018-08-02T09:56:32.521Z,63.10
2018-08-02T09:58:36.383Z,61.40
2018-08-02T10:00:45.402Z,60.70
2018-08-02T10:02:49.212Z,60.90
2018-08-02T10:04:53.088Z,60.90
2018-08-02T10:06:56.873Z,59.30
2018-08-02T10:09:00.714Z,58.30
2018-08-02T10:11:04.590Z,62.40
2018-08-02T10:13:08.489Z,60.80
2018-08-02T10:15:12.353Z,59.90
2018-08-02T10:17:16.274Z,60.70
2018-08-02T10:19:20.038Z,61.10
2018-08-02T10:21:24.013Z,61.00
2018-08-02T10:23:27.784Z,59.70
2018-08-02T10:25:31.623Z,58.90
2018-08-02T10:27:35.450Z,61.70
2018-08-02T10:29:39.307Z,63.70
2018-08-02T10:31:43.129Z,59.60
2018-08-02T10:33:47.089Z,60.70
2018-08-02T10:35:50.961Z,59.90
2018-08-02T10:37:54.757Z,59.60
2018-08-02T10:39:58.785Z,61.00
2018-08-02T10:42:02.636Z,61.10
2018-08-02T10:44:07.025Z,61.30
2018-08-02T10:46:10.882Z,59.60
2018-08-02T10:48:14.783Z,58.20
2018-08-02T10:50:18.679Z,58.50
2018-08-02T10:52:24.360Z,59.00
2018-08-02T10:54:28.226Z,60.10
2018-08-02T10:56:32.040Z,58.80
2018-08-02T10:58:35.960Z,59.80
2018-08-02T11:00:40.923Z,57.90
2018-08-02T11:02:44.744Z,60.90
2018-08-02T11:04:48.584Z,57.00
2018-08-02T11:06:52.448Z,56.10
2018-08-02T11:08:56.246Z,55.60
2018-08-02T11:11:00.150Z,54.70
2018-08-02T11:13:04.051Z,55.10
2018-08-02T11:15:07.995Z,55.90
2018-08-02T11:17:11.950Z,56.40
2018-08-02T11:19:15.851Z,54.90
2018-08-02T11:21:19.705Z,54.90
2018-08-02T11:23:23.719Z,55.70
2018-08-02T11:25:27.873Z,54.50
2018-08-02T11:27:31.781Z,54.40
2018-08-02T11:29:35.651Z,53.80
2018-08-02T11:31:40.347Z,54.90
2018-08-02T11:33:44.335Z,53.30
2018-08-02T11:35:48.205Z,54.40
2018-08-02T11:37:52.382Z,52.60
2018-08-02T11:39:56.275Z,53.70
2018-08-02T11:42:00.232Z,53.20
2018-08-02T11:44:04.329Z,53.40
2018-08-02T11:46:09.351Z,53.60
2018-08-02T11:48:13.199Z,53.30
2018-08-02T11:50:17.177Z,51.50
2018-08-02T11:52:21.207Z,52.20
2018-08-02T11:54:25.293Z,52.70
2018-08-02T11:56:29.807Z,52.50
2018-08-02T11:58:33.606Z,53.80
2018-08-02T12:00:37.510Z,53.80
2018-08-02T12:02:41.365Z,54.10
2018-08-02T12:04:45.255Z,51.50
2018-08-02T12:06:49.197Z,52.50
2018-08-02T12:08:53.327Z,54.00
2018-08-02T12:10:57.688Z,53.60
2018-08-02T12:13:01.584Z,55.60
2018-08-02T12:15:06.364Z,57.70
2018-08-02T12:17:10.383Z,57.70
2018-08-02T12:19:14.532Z,56.80
2018-08-02T12:21:18.378Z,57.00
2018-08-02T12:23:22.283Z,55.70
2018-08-02T12:25:26.105Z,56.20
2018-08-02T12:27:29.853Z,57.70
2018-08-02T12:29:33.678Z,57.40
2018-08-02T12:31:37.480Z,56.30
2018-08-02T12:33:41.248Z,55.60
2018-08-02T12:35:52.976Z,55.20
2018-08-02T12:37:57.279Z,59.20
2018-08-02T12:40:01.163Z,54.00
2018-08-02T12:42:05.088Z,53.80
2018-08-02T12:44:08.878Z,56.10
2018-08-02T12:46:12.691Z,54.10
2018-08-02T12:48:16.497Z,53.60
2018-08-02T12:50:20.408Z,53.20
2018-08-02T12:52:24.293Z,53.80
2018-08-02T12:54:28.103Z,52.50
2018-08-02T12:56:31.859Z,53.50
2018-08-02T12:58:35.617Z,53.40
2018-08-02T13:00:45.901Z,52.80
2018-08-02T13:02:49.727Z,52.90
2018-08-02T13:04:53.570Z,53.90
2018-08-02T13:06:57.340Z,53.70
2018-08-02T13:09:01.212Z,55.20
2018-08-02T13:11:05.119Z,55.60
2018-08-02T13:13:08.884Z,56.10
2018-08-02T13:15:12.847Z,54.90
2018-08-02T13:17:16.609Z,55.00
2018-08-02T13:19:20.421Z,55.30
2018-08-02T13:21:24.269Z,55.70
2018-08-02T13:23:28.139Z,55.20
2018-08-02T13:25:31.924Z,57.80
2018-08-02T13:27:35.749Z,55.70
2018-08-02T13:29:39.593Z,55.50
2018-08-02T13:31:43.403Z,56.60
2018-08-02T13:33:47.279Z,57.20
2018-08-02T13:35:51.103Z,56.70
2018-08-02T13:37:55.016Z,55.90
2018-08-02T13:39:59.027Z,57.00
2018-08-02T13:42:02.950Z,57.30
2018-08-02T13:44:06.771Z,55.90
2018-08-02T13:46:10.599Z,53.80
2018-08-02T13:48:14.404Z,55.40
2018-08-02T13:50:18.261Z,57.60
2018-08-02T13:52:22.141Z,58.70
2018-08-02T13:54:26.250Z,57.80
2018-08-02T13:56:30.098Z,58.30
2018-08-02T13:58:35.077Z,58.40
2018-08-02T14:00:38.963Z,57.90
2018-08-02T14:02:42.837Z,56.90
2018-08-02T14:04:46.693Z,59.10
2018-08-02T14:06:50.587Z,56.90
2018-08-02T14:08:54.480Z,56.20
2018-08-02T14:10:58.443Z,56.60
2018-08-02T14:13:02.463Z,55.40
2018-08-02T14:15:06.638Z,55.10
2018-08-02T14:17:10.556Z,56.30
2018-08-02T14:19:14.337Z,56.70
2018-08-02T14:21:18.143Z,55.80
2018-08-02T14:23:21.952Z,55.40
2018-08-02T14:25:25.754Z,54.70
2018-08-02T14:27:29.576Z,55.70
2018-08-02T14:29:33.346Z,56.30
2018-08-02T14:33:40.568Z,55.70
2018-08-02T14:35:44.676Z,56.60
2018-08-02T14:37:48.518Z,55.30
2018-08-02T14:39:52.469Z,55.40
2018-08-02T14:41:56.256Z,55.10
2018-08-02T14:44:00.046Z,56.20
2018-08-02T14:46:03.910Z,56.90
2018-08-02T14:48:08.067Z,57.80
2018-08-02T14:50:11.957Z,56.40
2018-08-02T14:52:15.849Z,54.00
2018-08-02T14:54:23.194Z,54.00
2018-08-02T14:56:26.944Z,55.50
2018-08-02T14:58:30.950Z,56.10
2018-08-02T15:00:34.809Z,56.10
2018-08-02T15:02:38.636Z,56.20
2018-08-02T15:04:42.711Z,56.30
2018-08-02T15:06:46.513Z,56.10
2018-08-02T15:08:50.333Z,57.40
2018-08-02T15:10:54.170Z,58.00
2018-08-02T15:12:58.011Z,56.10
2018-08-02T15:15:01.882Z,56.80
2018-08-02T15:17:05.773Z,56.80
2018-08-02T15:19:09.647Z,57.50
2018-08-02T15:21:13.431Z,57.10
2018-08-02T15:23:17.272Z,55.60
2018-08-02T15:25:21.081Z,56.20
2018-08-02T15:27:25.032Z,55.60
2018-08-02T15:29:28.842Z,57.10
2018-08-02T15:31:32.695Z,56.10
2018-08-02T15:33:36.541Z,56.60
2018-08-02T15:35:40.390Z,57.10
2018-08-02T15:37:46.797Z,56.70
2018-08-02T15:39:50.569Z,57.40
2018-08-02T15:41:54.447Z,58.20
2018-08-02T15:43:58.501Z,58.30
2018-08-02T15:46:02.395Z,57.40
2018-08-02T15:48:06.199Z,56.50
2018-08-02T15:50:09.997Z,57.30
2018-08-02T15:52:13.807Z,57.40
2018-08-02T15:54:18.507Z,58.40
2018-08-02T15:56:22.352Z,57.50
2018-08-02T15:58:26.347Z,57.60
2018-08-02T16:00:31.233Z,57.80
2018-08-02T16:02:35.335Z,58.10
2018-08-02T16:04:39.922Z,58.00
2018-08-02T16:06:43.788Z,57.80
2018-08-02T16:08:50.191Z,57.70
2018-08-02T16:10:54.537Z,57.70
2018-08-02T16:12:58.439Z,56.60
2018-08-02T16:15:03.657Z,56.60
2018-08-02T16:17:07.517Z,56.60
2018-08-02T16:19:18.814Z,56.30
2018-08-02T16:21:24.082Z,57.30
2018-08-02T16:23:27.931Z,56.50
2018-08-02T16:25:31.842Z,56.40
2018-08-02T16:27:36.329Z,57.20
2018-08-02T16:31:43.795Z,55.40
2018-08-02T16:33:47.894Z,55.90
2018-08-02T16:35:51.731Z,56.30
2018-08-02T16:37:55.826Z,57.00
2018-08-02T16:39:59.695Z,56.40
2018-08-02T16:42:03.495Z,56.60
2018-08-02T16:44:07.936Z,56.00
2018-08-02T16:46:11.775Z,57.30
2018-08-02T16:48:15.685Z,57.00
2018-08-02T16:50:19.549Z,56.70
2018-08-02T16:52:23.524Z,58.50
2018-08-02T16:54:27.265Z,58.80
2018-08-02T16:56:31.254Z,58.70
2018-08-02T16:58:35.138Z,59.30
2018-08-02T17:00:38.955Z,58.30
2018-08-02T17:02:42.777Z,58.20
2018-08-02T17:04:46.568Z,58.50
2018-08-02T17:06:51.523Z,58.70
2018-08-02T17:08:55.423Z,58.80
2018-08-02T17:10:59.261Z,59.20
2018-08-02T17:13:03.073Z,58.60
2018-08-02T17:15:07.158Z,58.10
2018-08-02T17:19:15.395Z,58.10
2018-08-02T17:21:19.222Z,57.70
2018-08-02T17:23:23.430Z,57.60
2018-08-02T17:25:41.128Z,57.80
2018-08-02T17:27:46.102Z,57.90
2018-08-02T17:29:49.935Z,58.50
2018-08-02T17:31:53.793Z,58.60
2018-08-02T17:33:58.808Z,58.60
2018-08-02T17:36:02.694Z,59.10
2018-08-02T17:40:10.746Z,59.60
2018-08-02T17:42:14.799Z,59.30
2018-08-02T17:44:18.663Z,59.10
2018-08-02T17:46:22.681Z,58.60
2018-08-02T17:48:26.655Z,58.00
2018-08-02T17:50:30.493Z,57.90
2018-08-02T17:52:34.796Z,58.80
2018-08-02T17:54:38.809Z,59.20
2018-08-02T17:56:42.740Z,58.40
2018-08-02T17:58:46.661Z,58.00
2018-08-02T18:00:50.567Z,58.40
2018-08-02T18:02:54.445Z,57.70
2018-08-02T18:04:58.452Z,58.70
2018-08-02T18:07:02.384Z,58.40
2018-08-02T18:09:09.135Z,58.60
2018-08-02T18:11:13.010Z,59.40
2018-08-02T18:13:16.979Z,59.40
2018-08-02T18:15:21.169Z,59.70
2018-08-02T18:17:25.112Z,59.50
2018-08-02T18:19:29.184Z,59.40
2018-08-02T18:21:33.071Z,59.30
2018-08-02T18:23:37.027Z,59.20
2018-08-02T18:25:43.009Z,59.60
2018-08-02T18:27:46.889Z,59.80
2018-08-02T18:29:50.796Z,60.20
2018-08-02T18:31:54.960Z,59.50
2018-08-02T18:33:59.209Z,59.80
2018-08-02T18:36:03.302Z,59.10
2018-08-02T18:38:07.200Z,60.80
2018-08-02T18:40:11.124Z,59.70
2018-08-02T18:42:14.994Z,60.30
2018-08-02T18:44:18.835Z,61.20
2018-08-02T18:48:26.284Z,61.70
2018-08-02T18:50:30.175Z,64.30
2018-08-02T18:52:34.618Z,63.00
2018-08-02T18:54:38.471Z,61.70
2018-08-02T18:56:42.318Z,62.20
2018-08-02T18:58:46.263Z,62.60
2018-08-02T19:02:54.099Z,64.70
2018-08-02T19:04:58.012Z,64.20
2018-08-02T19:07:01.808Z,65.20
2018-08-02T19:09:07.854Z,66.10
2018-08-02T19:11:11.869Z,68.60
2018-08-02T19:13:15.696Z,68.60
2018-08-02T19:15:20.804Z,69.70
2018-08-02T19:17:24.855Z,70.30
2018-08-02T19:19:28.833Z,71.00
2018-08-02T19:21:32.993Z,71.10
2018-08-02T19:23:36.977Z,71.90
2018-08-02T19:25:40.799Z,73.00
2018-08-02T19:27:44.732Z,75.90
2018-08-02T19:29:49.302Z,77.40
2018-08-02T19:31:53.385Z,76.20
2018-08-02T19:33:58.352Z,76.30
2018-08-02T19:36:02.257Z,77.70
2018-08-02T19:38:06.632Z,77.30
2018-08-02T19:40:10.936Z,79.70
2018-08-02T19:42:14.785Z,78.30
2018-08-02T19:44:18.718Z,77.40
2018-08-02T19:46:22.580Z,75.90
2018-08-02T19:48:26.601Z,75.70
2018-08-02T19:50:30.592Z,75.20
2018-08-02T19:52:34.527Z,75.90
2018-08-02T19:54:39.236Z,77.40
2018-08-02T19:56:43.102Z,78.40
2018-08-02T19:58:46.952Z,77.70
2018-08-02T20:00:51.367Z,78.00
2018-08-02T20:02:55.230Z,80.30
2018-08-02T20:04:59.023Z,79.70
2018-08-02T20:07:02.943Z,80.40
2018-08-02T20:09:09.186Z,83.20
2018-08-02T20:11:12.997Z,83.00
2018-08-02T20:13:16.922Z,83.50
2018-08-02T20:15:20.726Z,85.00
2018-08-02T20:17:24.877Z,85.80
2018-08-02T20:19:28.650Z,86.40
2018-08-02T20:21:32.574Z,88.10
2018-08-02T20:23:36.319Z,87.50
2018-08-02T20:25:41.535Z,87.80
2018-08-02T20:27:45.317Z,86.80
2018-08-02T20:29:49.346Z,86.00
2018-08-02T20:31:53.208Z,84.70
2018-08-02T20:33:57.063Z,83.40
2018-08-02T20:36:02.141Z,83.60
2018-08-02T20:38:06.021Z,83.70
2018-08-02T20:40:09.925Z,84.50
2018-08-02T20:42:13.835Z,84.70
2018-08-02T20:44:17.793Z,84.20
2018-08-02T20:46:21.904Z,83.60
2018-08-02T20:48:25.846Z,85.10
2018-08-02T20:50:31.995Z,85.00
2018-08-02T20:52:35.785Z,85.60
2018-08-02T20:54:39.878Z,86.40
2018-08-02T20:56:43.910Z,86.70
2018-08-02T20:58:47.812Z,87.40
2018-08-02T21:00:51.707Z,88.40
2018-08-02T21:02:55.814Z,88.80
2018-08-02T21:04:59.786Z,89.00
2018-08-02T21:07:03.886Z,88.40
2018-08-02T21:09:08.206Z,88.10
2018-08-02T21:11:12.359Z,87.70
2018-08-02T21:13:16.209Z,86.50
2018-08-02T21:15:20.161Z,86.40
2018-08-02T21:17:24.390Z,86.00
2018-08-02T21:19:28.412Z,85.90
2018-08-02T21:21:32.194Z,86.40
2018-08-02T21:23:36.095Z,86.30
2018-08-02T21:25:39.957Z,87.00
2018-08-02T21:27:43.768Z,87.80
2018-08-02T21:29:47.718Z,88.60
2018-08-02T21:31:51.514Z,89.40
2018-08-02T21:33:55.282Z,89.20
2018-08-02T21:35:59.107Z,90.20
2018-08-02T21:38:03.005Z,90.80
2018-08-02T21:40:06.842Z,91.40
2018-08-02T21:42:10.746Z,91.40
2018-08-02T21:44:14.583Z,91.30
2018-08-02T21:46:18.631Z,91.00
2018-08-02T21:48:22.540Z,90.60
2018-08-02T21:50:26.446Z,90.40
2018-08-02T21:52:30.330Z,90.20
2018-08-02T21:54:34.280Z,90.20
2018-08-02T21:56:38.103Z,90.20
2018-08-02T21:58:41.935Z,90.20
2018-08-02T22:00:45.757Z,90.60
2018-08-02T22:02:49.731Z,91.00
2018-08-02T22:04:53.506Z,91.30
2018-08-02T22:07:02.792Z,91.90
2018-08-02T22:09:09.360Z,92.10
2018-08-02T22:11:13.479Z,92.60
2018-08-02T22:13:22.633Z,93.00
2018-08-02T22:15:31.734Z,93.60
2018-08-02T22:17:35.534Z,94.30
2018-08-02T22:19:39.321Z,94.40
2018-08-02T22:21:43.161Z,93.90
2018-08-02T22:23:46.996Z,93.70
2018-08-02T22:25:50.889Z,93.30
2018-08-02T22:27:54.660Z,93.50
2018-08-02T22:29:58.449Z,93.50
2018-08-02T22:32:02.229Z,93.60
2018-08-02T22:34:06.279Z,93.50
2018-08-02T22:36:10.103Z,93.80
2018-08-02T22:38:14.025Z,94.00
2018-08-02T22:40:17.849Z,94.60
2018-08-02T22:42:22.085Z,95.10
2018-08-02T22:44:25.896Z,95.70
2018-08-02T22:46:29.962Z,96.20
2018-08-02T22:48:33.745Z,97.10
2018-08-02T22:50:37.530Z,97.90
2018-08-02T22:52:41.308Z,98.40
2018-08-02T22:54:45.108Z,99.50
2018-08-02T22:56:48.856Z,98.50
2018-08-02T22:58:52.620Z,98.70
2018-08-02T23:00:56.407Z,98.10
2018-08-02T23:03:00.164Z,98.10
2018-08-02T23:05:04.159Z,97.90
2018-08-02T23:07:07.913Z,97.90
2018-08-02T23:09:11.897Z,98.10
2018-08-02T23:11:15.708Z,98.10
2018-08-02T23:13:19.472Z,98.60
2018-08-02T23:15:23.284Z,99.40
2018-08-02T23:17:27.080Z,99.90
2018-08-02T23:21:34.369Z,99.90
2018-08-02T23:23:38.192Z,99.90
2018-08-02T23:25:41.959Z,99.90
2018-08-02T23:27:45.727Z,99.90
2018-08-02T23:29:49.525Z,99.90
2018-08-02T23:31:53.312Z,99.90
2018-08-02T23:33:57.063Z,99.90
2018-08-02T23:36:00.869Z,99.90
2018-08-02T23:38:04.707Z,99.90
2018-08-02T23:40:08.539Z,99.90
2018-08-02T23:42:12.331Z,99.90
2018-08-02T23:44:16.148Z,99.90
2018-08-02T23:46:19.970Z,99.90
2018-08-02T23:48:23.717Z,99.90
2018-08-02T23:50:27.514Z,99.90
2018-08-02T23:52:31.336Z,99.90
2018-08-02T23:54:35.164Z,99.90
2018-08-02T23:56:38.936Z,99.90
2018-08-02T23:58:42.716Z,99.90
